Time,TemperatureF,DewpointF,PressureIn,WindDirection,WindDirectionDegrees,WindSpeedMPH,WindSpeedGustMPH,Humidity,HourlyPrecipIn,Conditions,Clouds,dailyrainin,SoftwareType,DateUTC
2013-01-21 00:04:00,20.3,12.7,30.59,West,263,5.0,5.0,72,0.00,,,0.00,Wunderground v.1.15,2013-01-21 06:04:00,
2013-01-21 00:09:00,20.3,12.7,30.59,West,263,4.0,5.0,72,0.00,,,0.00,Wunderground v.1.15,2013-01-21 06:09:00,
2013-01-21 00:15:00,20.4,12.5,30.59,West,263,6.0,7.0,71,0.00,,,0.00,Wunderground v.1.15,2013-01-21 06:15:00,
2013-01-21 00:20:00,20.4,12.5,30.58,West,263,6.0,6.0,71,0.00,,,0.00,Wunderground v.1.15,2013-01-21 06:20:00,
2013-01-21 00:26:00,20.5,12.6,30.58,West,263,6.0,7.0,71,0.00,,,0.00,Wunderground v.1.15,2013-01-21 06:26:00,
2013-01-21 00:32:00,20.7,12.5,30.58,West,263,7.0,7.0,70,0.00,,,0.00,Wunderground v.1.15,2013-01-21 06:32:00,
2013-01-21 00:38:00,20.7,12.5,30.58,West,263,7.0,8.0,70,0.00,,,0.00,Wunderground v.1.15,2013-01-21 06:38:00,
2013-01-21 00:43:00,21.0,12.4,30.58,WSW,254,8.0,9.0,69,0.00,,,0.00,Wunderground v.1.15,2013-01-21 06:43:00,
2013-01-21 00:48:00,21.2,12.3,30.58,SW,222,9.0,10.0,68,0.00,,,0.00,Wunderground v.1.15,2013-01-21 06:48:00,
2013-01-21 00:54:00,21.1,12.5,30.57,SW,215,10.0,11.0,69,0.00,,,0.00,Wunderground v.1.15,2013-01-21 06:54:00,
2013-01-21 00:59:00,21.3,12.4,30.57,SW,215,10.0,11.0,68,0.00,,,0.00,Wunderground v.1.15,2013-01-21 06:59:00,
2013-01-21 01:04:00,21.4,12.5,30.57,SW,215,10.0,10.0,68,0.00,,,0.00,Wunderground v.1.15,2013-01-21 07:04:00,
2013-01-21 01:10:00,21.1,12.2,30.57,SSW,213,9.0,9.0,68,0.00,,,0.00,Wunderground v.1.15,2013-01-21 07:10:00,
2013-01-21 01:16:00,20.7,12.1,30.56,SSW,213,8.0,9.0,69,0.00,,,0.00,Wunderground v.1.15,2013-01-21 07:16:00,
2013-01-21 01:21:00,20.7,12.1,30.56,SSW,213,8.0,8.0,69,0.00,,,0.00,Wunderground v.1.15,2013-01-21 07:21:00,
2013-01-21 01:27:00,20.6,12.0,30.56,SSW,213,7.0,8.0,69,0.00,,,0.00,Wunderground v.1.15,2013-01-21 07:27:00,
2013-01-21 01:32:00,20.2,12.0,30.57,SSW,213,7.0,7.0,70,0.00,,,0.00,Wunderground v.1.15,2013-01-21 07:32:00,
2013-01-21 01:38:00,19.7,11.8,30.57,SSW,213,7.0,7.0,71,0.00,,,0.00,Wunderground v.1.15,2013-01-21 07:38:00,
2013-01-21 01:44:00,19.7,11.8,30.57,SSW,213,7.0,7.0,71,0.00,,,0.00,Wunderground v.1.15,2013-01-21 07:44:00,
2013-01-21 01:49:00,19.4,11.5,30.58,SSW,213,6.0,7.0,71,0.00,,,0.00,Wunderground v.1.15,2013-01-21 07:49:00,
2013-01-21 01:55:00,19.0,11.5,30.58,SSW,213,4.0,6.0,72,0.00,,,0.00,Wunderground v.1.15,2013-01-21 07:55:00,
2013-01-21 02:00:00,18.9,11.7,30.58,SSW,213,4.0,4.0,73,0.00,,,0.00,Wunderground v.1.15,2013-01-21 08:00:00,
2013-01-21 02:06:00,18.8,11.6,30.58,SSW,213,4.0,5.0,73,0.00,,,0.00,Wunderground v.1.15,2013-01-21 08:06:00,
2013-01-21 02:12:00,18.8,11.6,30.58,SSW,213,4.0,4.0,73,0.00,,,0.00,Wunderground v.1.15,2013-01-21 08:12:00,
2013-01-21 02:17:00,18.5,11.3,30.58,SSW,213,4.0,6.0,73,0.00,,,0.00,Wunderground v.1.15,2013-01-21 08:17:00,
2013-01-21 02:23:00,18.3,11.4,30.57,SSW,213,4.0,5.0,74,0.00,,,0.00,Wunderground v.1.15,2013-01-21 08:23:00,
2013-01-21 02:28:00,18.2,11.3,30.57,SSW,213,5.0,5.0,74,0.00,,,0.00,Wunderground v.1.15,2013-01-21 08:28:00,
2013-01-21 02:34:00,18.0,11.4,30.57,SSW,213,6.0,7.0,75,0.00,,,0.00,Wunderground v.1.15,2013-01-21 08:34:00,
2013-01-21 02:40:00,17.8,11.2,30.57,SSW,213,7.0,7.0,75,0.00,,,0.00,Wunderground v.1.15,2013-01-21 08:40:00,
2013-01-21 02:45:00,17.7,11.1,30.57,SSW,213,7.0,7.0,75,0.00,,,0.00,Wunderground v.1.15,2013-01-21 08:45:00,
2013-01-21 02:50:00,17.7,11.1,30.57,SSW,213,7.0,7.0,75,0.00,,,0.00,Wunderground v.1.15,2013-01-21 08:50:00,
2013-01-21 02:56:00,17.5,10.9,30.57,SSW,213,7.0,7.0,75,0.00,,,0.00,Wunderground v.1.15,2013-01-21 08:56:00,
2013-01-21 03:01:00,17.3,11.0,30.57,SSW,213,6.0,6.0,76,0.00,,,0.00,Wunderground v.1.15,2013-01-21 09:01:00,
2013-01-21 03:07:00,17.1,10.8,30.57,SSW,213,5.0,6.0,76,0.00,,,0.00,Wunderground v.1.15,2013-01-21 09:07:00,
2013-01-21 03:12:00,16.7,10.4,30.56,SSW,213,5.0,5.0,76,0.00,,,0.00,Wunderground v.1.15,2013-01-21 09:12:00,
2013-01-21 03:18:00,16.7,10.7,30.56,SSW,213,5.0,5.0,77,0.00,,,0.00,Wunderground v.1.15,2013-01-21 09:18:00,
2013-01-21 03:23:00,16.6,10.6,30.56,SSW,213,5.0,5.0,77,0.00,,,0.00,Wunderground v.1.15,2013-01-21 09:23:00,
2013-01-21 03:29:00,16.6,10.6,30.56,SSW,213,6.0,6.0,77,0.00,,,0.00,Wunderground v.1.15,2013-01-21 09:29:00,
2013-01-21 03:34:00,16.4,10.4,30.56,SSW,213,6.0,6.0,77,0.00,,,0.00,Wunderground v.1.15,2013-01-21 09:34:00,
2013-01-21 03:40:00,16.3,10.6,30.56,SW,219,6.0,7.0,78,0.00,,,0.00,Wunderground v.1.15,2013-01-21 09:40:00,
2013-01-21 03:46:00,16.3,10.6,30.56,WSW,245,6.0,7.0,78,0.00,,,0.00,Wunderground v.1.15,2013-01-21 09:46:00,
2013-01-21 03:51:00,16.3,10.6,30.56,WNW,283,7.0,8.0,78,0.00,,,0.00,Wunderground v.1.15,2013-01-21 09:51:00,
2013-01-21 03:57:00,16.3,10.6,30.55,WNW,283,7.0,8.0,78,0.00,,,0.00,Wunderground v.1.15,2013-01-21 09:57:00,
2013-01-21 04:02:00,16.2,10.5,30.56,WNW,283,6.0,6.0,78,0.00,,,0.00,Wunderground v.1.15,2013-01-21 10:02:00,
2013-01-21 04:08:00,16.2,10.8,30.56,WNW,283,5.0,6.0,79,0.00,,,0.00,Wunderground v.1.15,2013-01-21 10:08:00,
2013-01-21 04:13:00,16.6,10.9,30.55,WNW,298,6.0,7.0,78,0.00,,,0.00,Wunderground v.1.15,2013-01-21 10:13:00,
2013-01-21 04:19:00,16.9,11.2,30.55,WNW,298,6.0,7.0,78,0.00,,,0.00,Wunderground v.1.15,2013-01-21 10:19:00,
2013-01-21 04:24:00,16.8,10.8,30.55,WNW,298,5.0,6.0,77,0.00,,,0.00,Wunderground v.1.15,2013-01-21 10:24:00,
2013-01-21 04:30:00,16.8,10.8,30.56,WNW,298,4.0,4.0,77,0.00,,,0.00,Wunderground v.1.15,2013-01-21 10:30:00,
2013-01-21 04:35:00,16.6,10.3,30.56,WNW,298,3.0,4.0,76,0.00,,,0.00,Wunderground v.1.15,2013-01-21 10:35:00,
2013-01-21 04:41:00,16.2,10.0,30.57,WNW,298,2.0,3.0,76,0.00,,,0.00,Wunderground v.1.15,2013-01-21 10:41:00,
2013-01-21 04:46:00,16.0,10.1,30.57,WNW,298,2.0,4.0,77,0.00,,,0.00,Wunderground v.1.15,2013-01-21 10:46:00,
2013-01-21 04:51:00,16.0,10.1,30.57,WNW,298,3.0,3.0,77,0.00,,,0.00,Wunderground v.1.15,2013-01-21 10:51:00,
2013-01-21 04:57:00,16.2,10.5,30.56,WNW,298,4.0,6.0,78,0.00,,,0.00,Wunderground v.1.15,2013-01-21 10:57:00,
2013-01-21 05:02:00,16.4,10.7,30.56,WNW,298,4.0,4.0,78,0.00,,,0.00,Wunderground v.1.15,2013-01-21 11:02:00,
2013-01-21 05:07:00,16.5,10.8,30.56,WNW,298,3.0,4.0,78,0.00,,,0.00,Wunderground v.1.15,2013-01-21 11:07:00,
2013-01-21 05:13:00,16.7,11.0,30.55,WNW,298,3.0,3.0,78,0.00,,,0.00,Wunderground v.1.15,2013-01-21 11:13:00,
2013-01-21 05:18:00,16.7,11.0,30.55,WNW,298,3.0,3.0,78,0.00,,,0.00,Wunderground v.1.15,2013-01-21 11:18:00,
2013-01-21 05:24:00,16.4,10.2,30.55,WNW,298,1.0,2.0,76,0.00,,,0.00,Wunderground v.1.15,2013-01-21 11:24:00,
2013-01-21 05:29:00,16.1,9.9,30.56,WNW,298,0.0,2.0,76,0.00,,,0.00,Wunderground v.1.15,2013-01-21 11:29:00,
2013-01-21 05:35:00,16.2,10.3,30.56,WNW,298,1.0,3.0,77,0.00,,,0.00,Wunderground v.1.15,2013-01-21 11:35:00,
2013-01-21 05:41:00,16.0,10.1,30.56,WNW,298,0.0,1.0,77,0.00,,,0.00,Wunderground v.1.15,2013-01-21 11:41:00,
2013-01-21 05:47:00,15.9,10.0,30.55,WNW,298,0.0,1.0,77,0.00,,,0.00,Wunderground v.1.15,2013-01-21 11:47:00,
2013-01-21 05:52:00,15.7,9.8,30.56,WNW,298,0.0,0.0,77,0.00,,,0.00,Wunderground v.1.15,2013-01-21 11:52:00,
2013-01-21 05:58:00,15.5,9.6,30.56,WNW,298,0.0,0.0,77,0.00,,,0.00,Wunderground v.1.15,2013-01-21 11:58:00,
2013-01-21 06:03:00,15.2,9.3,30.55,WNW,298,0.0,0.0,77,0.00,,,0.00,Wunderground v.1.15,2013-01-21 12:03:00,
2013-01-21 06:09:00,15.2,9.6,30.55,WNW,298,0.0,0.0,78,0.00,,,0.00,Wunderground v.1.15,2013-01-21 12:09:00,
2013-01-21 06:14:00,15.3,9.7,30.55,WNW,298,0.0,2.0,78,0.00,,,0.00,Wunderground v.1.15,2013-01-21 12:14:00,
2013-01-21 06:19:00,15.3,9.7,30.55,WNW,298,0.0,2.0,78,0.00,,,0.00,Wunderground v.1.15,2013-01-21 12:19:00,
2013-01-21 06:25:00,15.2,9.6,30.56,WNW,298,0.0,0.0,78,0.00,,,0.00,Wunderground v.1.15,2013-01-21 12:25:00,
2013-01-21 06:30:00,15.1,9.5,30.55,WNW,298,0.0,2.0,78,0.00,,,0.00,Wunderground v.1.15,2013-01-21 12:30:00,
2013-01-21 06:36:00,15.1,9.8,30.55,WNW,298,2.0,3.0,79,0.00,,,0.00,Wunderground v.1.15,2013-01-21 12:36:00,
2013-01-21 06:41:00,15.2,9.9,30.55,WNW,298,2.0,2.0,79,0.00,,,0.00,Wunderground v.1.15,2013-01-21 12:41:00,
2013-01-21 06:47:00,15.4,10.3,30.55,WNW,298,1.0,2.0,80,0.00,,,0.00,Wunderground v.1.15,2013-01-21 12:47:00,
2013-01-21 06:52:00,15.7,10.3,30.55,WNW,298,1.0,2.0,79,0.00,,,0.00,Wunderground v.1.15,2013-01-21 12:52:00,
2013-01-21 06:58:00,15.8,10.4,30.56,WNW,298,0.0,2.0,79,0.00,,,0.00,Wunderground v.1.15,2013-01-21 12:58:00,
2013-01-21 07:03:00,15.9,10.5,30.56,WNW,298,0.0,0.0,79,0.00,,,0.00,Wunderground v.1.15,2013-01-21 13:03:00,
2013-01-21 07:09:00,16.1,10.7,30.55,WNW,298,0.0,0.0,79,0.00,,,0.00,Wunderground v.1.15,2013-01-21 13:09:00,
2013-01-21 07:14:00,16.2,10.8,30.55,WNW,298,0.0,0.0,79,0.00,,,0.00,Wunderground v.1.15,2013-01-21 13:14:00,
2013-01-21 07:20:00,16.3,10.9,30.55,WNW,298,0.0,1.0,79,0.00,,,0.00,Wunderground v.1.15,2013-01-21 13:20:00,
2013-01-21 07:25:00,16.4,11.0,30.54,WNW,298,1.0,2.0,79,0.00,,,0.00,Wunderground v.1.15,2013-01-21 13:25:00,
2013-01-21 07:31:00,16.7,11.3,30.54,WNW,298,2.0,3.0,79,0.00,,,0.00,Wunderground v.1.15,2013-01-21 13:31:00,
2013-01-21 07:36:00,17.0,11.6,30.54,WNW,298,2.0,3.0,79,0.00,,,0.00,Wunderground v.1.15,2013-01-21 13:36:00,
2013-01-21 07:42:00,17.2,11.8,30.53,WNW,298,2.0,4.0,79,0.00,,,0.00,Wunderground v.1.15,2013-01-21 13:42:00,
2013-01-21 07:47:00,17.2,11.8,30.53,WNW,298,2.0,4.0,79,0.00,,,0.00,Wunderground v.1.15,2013-01-21 13:47:00,
2013-01-21 07:53:00,17.2,11.8,30.53,WNW,298,2.0,2.0,79,0.00,,,0.00,Wunderground v.1.15,2013-01-21 13:53:00,
2013-01-21 07:58:00,17.3,11.9,30.53,WNW,298,2.0,4.0,79,0.00,,,0.00,Wunderground v.1.15,2013-01-21 13:58:00,
2013-01-21 08:03:00,17.5,12.1,30.53,NW,322,3.0,5.0,79,0.00,,,0.00,Wunderground v.1.15,2013-01-21 14:03:00,
2013-01-21 08:09:00,17.6,12.2,30.53,NW,323,4.0,5.0,79,0.00,,,0.00,Wunderground v.1.15,2013-01-21 14:09:00,
2013-01-21 08:14:00,17.5,11.8,30.53,NW,323,3.0,4.0,78,0.00,,,0.00,Wunderground v.1.15,2013-01-21 14:14:00,
2013-01-21 08:20:00,17.4,11.7,30.52,NE,38,4.0,5.0,78,0.00,,,0.00,Wunderground v.1.15,2013-01-21 14:20:00,
2013-01-21 08:25:00,17.3,11.6,30.52,ENE,74,6.0,8.0,78,0.00,,,0.00,Wunderground v.1.15,2013-01-21 14:25:00,
2013-01-21 08:31:00,17.5,11.8,30.53,ENE,74,6.0,6.0,78,0.00,,,0.00,Wunderground v.1.15,2013-01-21 14:31:00,
2013-01-21 08:36:00,17.8,12.1,30.54,ENE,74,5.0,7.0,78,0.00,,,0.00,Wunderground v.1.15,2013-01-21 14:36:00,
2013-01-21 08:42:00,17.7,11.7,30.54,ENE,74,6.0,7.0,77,0.00,,,0.00,Wunderground v.1.15,2013-01-21 14:42:00,
2013-01-21 08:47:00,17.5,11.5,30.55,ENE,74,6.0,7.0,77,0.00,,,0.00,Wunderground v.1.15,2013-01-21 14:47:00,
2013-01-21 08:53:00,17.3,11.3,30.55,ENE,74,6.0,8.0,77,0.00,,,0.00,Wunderground v.1.15,2013-01-21 14:53:00,
2013-01-21 08:58:00,17.3,11.3,30.55,ENE,74,7.0,8.0,77,0.00,,,0.00,Wunderground v.1.15,2013-01-21 14:58:00,
2013-01-21 09:04:00,17.2,11.2,30.56,ENE,60,8.0,9.0,77,0.00,,,0.00,Wunderground v.1.15,2013-01-21 15:04:00,
2013-01-21 09:10:00,17.3,11.6,30.55,ENE,59,7.0,8.0,78,0.00,,,0.00,Wunderground v.1.15,2013-01-21 15:10:00,
2013-01-21 09:15:00,17.3,11.6,30.55,NE,55,7.0,9.0,78,0.00,,,0.00,Wunderground v.1.15,2013-01-21 15:15:00,
2013-01-21 09:21:00,17.5,11.8,30.56,NE,42,8.0,9.0,78,0.00,,,0.00,Wunderground v.1.15,2013-01-21 15:21:00,
2013-01-21 09:27:00,17.6,11.9,30.55,ENE,67,9.0,12.0,78,0.00,,,0.00,Wunderground v.1.15,2013-01-21 15:27:00,
2013-01-21 09:32:00,18.0,12.0,30.55,NE,56,11.0,11.0,77,0.00,,,0.00,Wunderground v.1.15,2013-01-21 15:32:00,
2013-01-21 09:38:00,18.1,11.5,30.55,ENE,57,11.0,12.0,75,0.00,,,0.00,Wunderground v.1.15,2013-01-21 15:38:00,
2013-01-21 09:44:00,18.4,11.8,30.56,NE,53,10.0,12.0,75,0.00,,,0.00,Wunderground v.1.15,2013-01-21 15:44:00,
2013-01-21 09:50:00,18.6,11.7,30.57,NE,42,9.0,9.0,74,0.00,,,0.00,Wunderground v.1.15,2013-01-21 15:50:00,
2013-01-21 09:55:00,18.9,12.0,30.57,ENE,63,9.0,11.0,74,0.00,,,0.00,Wunderground v.1.15,2013-01-21 15:55:00,
2013-01-21 10:01:00,18.9,11.7,30.57,ENE,59,9.0,9.0,73,0.00,,,0.00,Wunderground v.1.15,2013-01-21 16:01:00,
2013-01-21 10:07:00,19.3,12.1,30.58,NE,53,8.0,9.0,73,0.00,,,0.00,Wunderground v.1.15,2013-01-21 16:07:00,
2013-01-21 10:12:00,19.1,11.6,30.57,ENE,65,9.0,11.0,72,0.00,,,0.00,Wunderground v.1.15,2013-01-21 16:12:00,
2013-01-21 10:17:00,19.5,11.9,30.56,ENE,71,10.0,14.0,72,0.00,,,0.00,Wunderground v.1.15,2013-01-21 16:17:00,
2013-01-21 10:23:00,19.7,12.1,30.57,ENE,67,9.0,11.0,72,0.00,,,0.00,Wunderground v.1.15,2013-01-21 16:23:00,
2013-01-21 10:28:00,19.8,12.2,30.56,ENE,61,9.0,11.0,72,0.00,,,0.00,Wunderground v.1.15,2013-01-21 16:28:00,
2013-01-21 10:34:00,20.4,12.5,30.56,ENE,76,7.0,10.0,71,0.00,,,0.00,Wunderground v.1.15,2013-01-21 16:34:00,
2013-01-21 10:39:00,20.5,12.6,30.56,East,86,7.0,10.0,71,0.00,,,0.00,Wunderground v.1.15,2013-01-21 16:39:00,
2013-01-21 10:45:00,20.6,12.7,30.55,ENE,76,7.0,9.0,71,0.00,,,0.00,Wunderground v.1.15,2013-01-21 16:45:00,
2013-01-21 10:50:00,20.4,12.5,30.56,ENE,61,7.0,11.0,71,0.00,,,0.00,Wunderground v.1.15,2013-01-21 16:50:00,
2013-01-21 10:56:00,20.2,12.3,30.56,ENE,57,8.0,11.0,71,0.00,,,0.00,Wunderground v.1.15,2013-01-21 16:56:00,
2013-01-21 11:01:00,20.3,12.7,30.55,ENE,75,9.0,10.0,72,0.00,,,0.00,Wunderground v.1.15,2013-01-21 17:01:00,
2013-01-21 11:07:00,20.6,12.7,30.55,ENE,61,10.0,12.0,71,0.00,,,0.00,Wunderground v.1.15,2013-01-21 17:07:00,
2013-01-21 11:12:00,20.8,12.9,30.56,NE,52,10.0,12.0,71,0.00,,,0.00,Wunderground v.1.15,2013-01-21 17:12:00,
2013-01-21 11:18:00,20.9,13.0,30.56,ENE,58,10.0,15.0,71,0.00,,,0.00,Wunderground v.1.15,2013-01-21 17:18:00,
2013-01-21 11:23:00,20.7,12.8,30.55,ENE,75,10.0,11.0,71,0.00,,,0.00,Wunderground v.1.15,2013-01-21 17:23:00,
2013-01-21 11:29:00,20.6,12.7,30.55,ENE,65,10.0,12.0,71,0.00,,,0.00,Wunderground v.1.15,2013-01-21 17:29:00,
2013-01-21 11:34:00,20.9,13.0,30.55,ENE,61,10.0,11.0,71,0.00,,,0.00,Wunderground v.1.15,2013-01-21 17:34:00,
2013-01-21 11:40:00,21.0,12.7,30.56,ENE,65,10.0,10.0,70,0.00,,,0.00,Wunderground v.1.15,2013-01-21 17:40:00,
2013-01-21 11:50:00,21.3,13.0,30.57,NE,41,9.0,9.0,70,0.00,,,0.00,Wunderground v.1.15,2013-01-21 17:50:00,
2013-01-21 11:55:00,21.3,12.7,30.57,NE,38,8.0,9.0,69,0.00,,,0.00,Wunderground v.1.15,2013-01-21 17:55:00,
2013-01-21 12:01:00,21.4,13.1,30.56,ENE,61,7.0,10.0,70,0.00,,,0.00,Wunderground v.1.15,2013-01-21 18:01:00,
2013-01-21 12:06:00,21.4,12.8,30.55,NE,53,9.0,12.0,69,0.00,,,0.00,Wunderground v.1.15,2013-01-21 18:06:00,
2013-01-21 12:12:00,21.6,13.0,30.54,ENE,61,10.0,11.0,69,0.00,,,0.00,Wunderground v.1.15,2013-01-21 18:12:00,
2013-01-21 12:18:00,21.8,13.2,30.55,ENE,69,9.0,11.0,69,0.00,,,0.00,Wunderground v.1.15,2013-01-21 18:18:00,
2013-01-21 12:23:00,22.1,13.1,30.55,ENE,68,8.0,10.0,68,0.00,,,0.00,Wunderground v.1.15,2013-01-21 18:23:00,
2013-01-21 12:28:00,22.1,13.1,30.55,ENE,59,8.0,10.0,68,0.00,,,0.00,Wunderground v.1.15,2013-01-21 18:28:00,
2013-01-21 12:34:00,22.1,13.1,30.54,ENE,59,6.0,9.0,68,0.00,,,0.00,Wunderground v.1.15,2013-01-21 18:34:00,
2013-01-21 12:39:00,22.4,13.4,30.53,ENE,78,6.0,9.0,68,0.00,,,0.00,Wunderground v.1.15,2013-01-21 18:39:00,
2013-01-21 12:45:00,22.7,13.4,30.54,East,83,6.0,8.0,67,0.00,,,0.00,Wunderground v.1.15,2013-01-21 18:45:00,
2013-01-21 12:50:00,23.0,13.3,30.53,East,82,6.0,8.0,66,0.00,,,0.00,Wunderground v.1.15,2013-01-21 18:50:00,
2013-01-21 12:56:00,22.9,13.2,30.53,ENE,63,6.0,9.0,66,0.00,,,0.00,Wunderground v.1.15,2013-01-21 18:56:00,
2013-01-21 13:01:00,23.0,13.3,30.53,ENE,58,6.0,9.0,66,0.00,,,0.00,Wunderground v.1.15,2013-01-21 19:01:00,
2013-01-21 13:07:00,22.8,13.1,30.53,NE,53,7.0,9.0,66,0.00,,,0.00,Wunderground v.1.15,2013-01-21 19:07:00,
2013-01-21 13:12:00,22.9,13.2,30.52,ENE,57,7.0,8.0,66,0.00,,,0.00,Wunderground v.1.15,2013-01-21 19:12:00,
2013-01-21 13:18:00,22.8,13.1,30.52,ENE,61,8.0,9.0,66,0.00,,,0.00,Wunderground v.1.15,2013-01-21 19:18:00,
2013-01-21 13:23:00,22.9,13.2,30.52,ENE,58,7.0,8.0,66,0.00,,,0.00,Wunderground v.1.15,2013-01-21 19:23:00,
2013-01-21 13:29:00,22.8,13.1,30.51,NE,49,7.0,9.0,66,0.00,,,0.00,Wunderground v.1.15,2013-01-21 19:29:00,
2013-01-21 13:34:00,23.2,13.5,30.51,ENE,65,6.0,11.0,66,0.00,,,0.00,Wunderground v.1.15,2013-01-21 19:34:00,
2013-01-21 13:39:00,23.4,13.4,30.51,ENE,69,6.0,11.0,65,0.00,,,0.00,Wunderground v.1.15,2013-01-21 19:39:00,
2013-01-21 13:45:00,23.5,13.1,30.50,ENE,71,6.0,9.0,64,0.00,,,0.00,Wunderground v.1.15,2013-01-21 19:45:00,
2013-01-21 13:50:00,23.6,13.2,30.50,ENE,67,7.0,10.0,64,0.00,,,0.00,Wunderground v.1.15,2013-01-21 19:50:00,
2013-01-21 13:56:00,23.5,13.1,30.50,NE,56,8.0,10.0,64,0.00,,,0.00,Wunderground v.1.15,2013-01-21 19:56:00,
2013-01-21 14:02:00,23.5,13.1,30.50,East,86,7.0,8.0,64,0.00,,,0.00,Wunderground v.1.15,2013-01-21 20:02:00,
2013-01-21 14:08:00,23.6,12.8,30.49,ENE,64,7.0,10.0,63,0.00,,,0.00,Wunderground v.1.15,2013-01-21 20:08:00,
2013-01-21 14:14:00,23.8,13.0,30.49,East,81,7.0,9.0,63,0.00,,,0.00,Wunderground v.1.15,2013-01-21 20:14:00,
2013-01-21 14:19:00,24.1,13.3,30.49,East,82,8.0,10.0,63,0.00,,,0.00,Wunderground v.1.15,2013-01-21 20:19:00,
2013-01-21 14:24:00,24.2,13.4,30.50,ENE,66,8.0,12.0,63,0.00,,,0.00,Wunderground v.1.15,2013-01-21 20:24:00,
2013-01-21 14:30:00,23.9,13.1,30.50,ENE,69,9.0,9.0,63,0.00,,,0.00,Wunderground v.1.15,2013-01-21 20:30:00,
2013-01-21 14:35:00,24.3,13.5,30.50,ENE,78,8.0,9.0,63,0.00,,,0.00,Wunderground v.1.15,2013-01-21 20:35:00,
2013-01-21 14:40:00,24.4,13.2,30.50,ENE,66,6.0,6.0,62,0.00,,,0.00,Wunderground v.1.15,2013-01-21 20:40:00,
2013-01-21 14:46:00,24.0,12.9,30.50,NE,51,6.0,8.0,62,0.00,,,0.00,Wunderground v.1.15,2013-01-21 20:46:00,
2013-01-21 14:51:00,24.2,13.4,30.49,East,82,6.0,9.0,63,0.00,,,0.00,Wunderground v.1.15,2013-01-21 20:51:00,
2013-01-21 14:57:00,24.4,13.2,30.49,East,88,7.0,9.0,62,0.00,,,0.00,Wunderground v.1.15,2013-01-21 20:57:00,
2013-01-21 15:02:00,24.4,12.9,30.49,East,94,8.0,10.0,61,0.00,,,0.00,Wunderground v.1.15,2013-01-21 21:02:00,
2013-01-21 15:08:00,24.3,13.1,30.49,East,91,8.0,10.0,62,0.00,,,0.00,Wunderground v.1.15,2013-01-21 21:08:00,
2013-01-21 15:13:00,24.4,12.9,30.48,ENE,61,7.0,9.0,61,0.00,,,0.00,Wunderground v.1.15,2013-01-21 21:13:00,
2013-01-21 15:19:00,24.4,12.9,30.48,East,80,9.0,11.0,61,0.00,,,0.00,Wunderground v.1.15,2013-01-21 21:19:00,
2013-01-21 15:24:00,24.6,13.1,30.49,ENE,71,8.0,10.0,61,0.00,,,0.00,Wunderground v.1.15,2013-01-21 21:24:00,
2013-01-21 15:30:00,24.5,13.3,30.49,ENE,69,7.0,7.0,62,0.00,,,0.00,Wunderground v.1.15,2013-01-21 21:30:00,
2013-01-21 15:35:00,24.8,13.2,30.49,East,85,6.0,9.0,61,0.00,,,0.00,Wunderground v.1.15,2013-01-21 21:35:00,
2013-01-21 15:40:00,24.8,12.9,30.48,ENE,75,6.0,11.0,60,0.00,,,0.00,Wunderground v.1.15,2013-01-21 21:40:00,
2013-01-21 15:46:00,24.6,12.7,30.49,ENE,71,7.0,12.0,60,0.00,,,0.00,Wunderground v.1.15,2013-01-21 21:46:00,
2013-01-21 15:51:00,24.6,12.7,30.48,ENE,71,5.0,8.0,60,0.00,,,0.00,Wunderground v.1.15,2013-01-21 21:51:00,
2013-01-21 15:57:00,24.7,12.8,30.48,ENE,76,8.0,9.0,60,0.00,,,0.00,Wunderground v.1.15,2013-01-21 21:57:00,
2013-01-21 16:03:00,24.6,12.7,30.48,East,82,8.0,9.0,60,0.00,,,0.00,Wunderground v.1.15,2013-01-21 22:03:00,
2013-01-21 16:09:00,24.9,13.0,30.48,East,82,6.0,9.0,60,0.00,,,0.00,Wunderground v.1.15,2013-01-21 22:09:00,
2013-01-21 16:14:00,24.8,12.9,30.48,East,92,6.0,8.0,60,0.00,,,0.00,Wunderground v.1.15,2013-01-21 22:14:00,
2013-01-21 16:19:00,24.6,12.7,30.48,East,82,7.0,9.0,60,0.00,,,0.00,Wunderground v.1.15,2013-01-21 22:19:00,
2013-01-21 16:25:00,24.8,12.9,30.48,ENE,72,6.0,9.0,60,0.00,,,0.00,Wunderground v.1.15,2013-01-21 22:25:00,
2013-01-21 16:30:00,24.7,12.8,30.48,ENE,76,7.0,9.0,60,0.00,,,0.00,Wunderground v.1.15,2013-01-21 22:30:00,
2013-01-21 16:36:00,24.5,12.6,30.48,ENE,70,9.0,11.0,60,0.00,,,0.00,Wunderground v.1.15,2013-01-21 22:36:00,
2013-01-21 16:41:00,24.4,12.5,30.47,ENE,68,9.0,11.0,60,0.00,,,0.00,Wunderground v.1.15,2013-01-21 22:41:00,
2013-01-21 16:47:00,24.2,12.7,30.47,ENE,73,9.0,11.0,61,0.00,,,0.00,Wunderground v.1.15,2013-01-21 22:47:00,
2013-01-21 16:53:00,24.3,12.8,30.48,East,86,8.0,9.0,61,0.00,,,0.00,Wunderground v.1.15,2013-01-21 22:53:00,
2013-01-21 16:58:00,24.1,12.6,30.48,East,88,7.0,9.0,61,0.00,,,0.00,Wunderground v.1.15,2013-01-21 22:58:00,
2013-01-21 17:04:00,24.0,12.9,30.49,East,84,7.0,7.0,62,0.00,,,0.00,Wunderground v.1.15,2013-01-21 23:04:00,
2013-01-21 17:09:00,24.0,12.9,30.49,East,85,6.0,8.0,62,0.00,,,0.00,Wunderground v.1.15,2013-01-21 23:09:00,
2013-01-21 17:15:00,23.6,12.5,30.49,East,90,8.0,9.0,62,0.00,,,0.00,Wunderground v.1.15,2013-01-21 23:15:00,
2013-01-21 17:20:00,23.5,12.7,30.49,ENE,76,8.0,8.0,63,0.00,,,0.00,Wunderground v.1.15,2013-01-21 23:20:00,
2013-01-21 17:26:00,23.3,12.6,30.47,East,81,7.0,9.0,63,0.00,,,0.00,Wunderground v.1.15,2013-01-21 23:26:00,
2013-01-21 17:31:00,23.1,12.4,30.48,East,82,7.0,7.0,63,0.00,,,0.00,Wunderground v.1.15,2013-01-21 23:31:00,
2013-01-21 17:37:00,23.0,12.3,30.48,East,84,7.0,7.0,63,0.00,,,0.00,Wunderground v.1.15,2013-01-21 23:37:00,
2013-01-21 17:42:00,22.8,12.4,30.48,East,86,6.0,8.0,64,0.00,,,0.00,Wunderground v.1.15,2013-01-21 23:42:00,
2013-01-21 17:48:00,22.5,12.1,30.48,East,87,7.0,8.0,64,0.00,,,0.00,Wunderground v.1.15,2013-01-21 23:48:00,
2013-01-21 17:53:00,22.4,12.1,30.47,East,87,7.0,8.0,64,0.00,,,0.00,Wunderground v.1.15,2013-01-21 23:53:00,
2013-01-21 17:59:00,22.1,12.1,30.47,East,88,7.0,9.0,65,0.00,,,0.00,Wunderground v.1.15,2013-01-21 23:59:00,
2013-01-21 18:05:00,21.7,11.7,30.47,ESE,105,8.0,9.0,65,0.00,,,0.00,Wunderground v.1.15,2013-01-22 00:05:00,
2013-01-21 18:10:00,21.6,12.0,30.47,ESE,105,7.0,7.0,66,0.00,,,0.00,Wunderground v.1.15,2013-01-22 00:10:00,
2013-01-21 18:16:00,21.5,12.2,30.47,ESE,108,6.0,10.0,67,0.00,,,0.00,Wunderground v.1.15,2013-01-22 00:16:00,
2013-01-21 18:21:00,21.2,12.3,30.47,ESE,105,7.0,11.0,68,0.00,,,0.00,Wunderground v.1.15,2013-01-22 00:21:00,
2013-01-21 18:27:00,20.9,12.3,30.46,ESE,106,9.0,12.0,69,0.00,,,0.00,Wunderground v.1.15,2013-01-22 00:27:00,
2013-01-21 18:32:00,20.8,12.6,30.47,ESE,104,9.0,9.0,70,0.00,,,0.00,Wunderground v.1.15,2013-01-22 00:32:00,
2013-01-21 18:38:00,20.6,12.4,30.47,ESE,108,9.0,10.0,70,0.00,,,0.00,Wunderground v.1.15,2013-01-22 00:38:00,
2013-01-21 18:43:00,20.6,12.7,30.47,ESE,109,8.0,11.0,71,0.00,,,0.00,Wunderground v.1.15,2013-01-22 00:43:00,
2013-01-21 18:48:00,20.5,12.6,30.47,ESE,106,8.0,11.0,71,0.00,,,0.00,Wunderground v.1.15,2013-01-22 00:48:00,
2013-01-21 18:54:00,20.4,12.8,30.48,ESE,107,8.0,10.0,72,0.00,,,0.00,Wunderground v.1.15,2013-01-22 00:54:00,
2013-01-21 19:00:00,20.3,12.7,30.48,ESE,106,7.0,7.0,72,0.00,,,0.00,Wunderground v.1.15,2013-01-22 01:00:00,
2013-01-21 19:05:00,20.2,12.9,30.48,ESE,106,6.0,8.0,73,0.00,,,0.00,Wunderground v.1.15,2013-01-22 01:05:00,
2013-01-21 19:10:00,20.1,12.8,30.48,ESE,106,6.0,6.0,73,0.00,,,0.00,Wunderground v.1.15,2013-01-22 01:10:00,
2013-01-21 19:16:00,20.0,12.7,30.48,East,101,5.0,7.0,73,0.00,,,0.00,Wunderground v.1.15,2013-01-22 01:16:00,
2013-01-21 19:21:00,19.8,12.5,30.48,East,100,6.0,8.0,73,0.00,,,0.00,Wunderground v.1.15,2013-01-22 01:21:00,
2013-01-21 19:27:00,19.7,12.8,30.48,East,99,6.0,8.0,74,0.00,,,0.00,Wunderground v.1.15,2013-01-22 01:27:00,
2013-01-21 19:32:00,19.7,12.8,30.48,East,99,6.0,7.0,74,0.00,,,0.00,Wunderground v.1.15,2013-01-22 01:32:00,
2013-01-21 19:38:00,19.7,13.1,30.48,East,99,6.0,7.0,75,0.00,,,0.00,Wunderground v.1.15,2013-01-22 01:38:00,
2013-01-21 19:43:00,19.6,13.0,30.48,East,99,6.0,6.0,75,0.00,,,0.00,Wunderground v.1.15,2013-01-22 01:43:00,
2013-01-21 19:49:00,19.6,13.3,30.47,East,99,6.0,8.0,76,0.00,,,0.00,Wunderground v.1.15,2013-01-22 01:49:00,
2013-01-21 19:54:00,19.5,13.2,30.47,East,99,6.0,6.0,76,0.00,,,0.00,Wunderground v.1.15,2013-01-22 01:54:00,
2013-01-21 20:00:00,19.5,13.2,30.46,East,99,4.0,4.0,76,0.00,,,0.00,Wunderground v.1.15,2013-01-22 02:00:00,
2013-01-21 20:05:00,19.5,13.2,30.46,East,99,4.0,6.0,76,0.00,,,0.00,Wunderground v.1.15,2013-01-22 02:05:00,
2013-01-21 20:11:00,19.6,13.3,30.46,East,99,4.0,7.0,76,0.00,,,0.00,Wunderground v.1.15,2013-01-22 02:11:00,
2013-01-21 20:16:00,19.5,13.2,30.46,East,99,4.0,7.0,76,0.00,,,0.00,Wunderground v.1.15,2013-01-22 02:16:00,
2013-01-21 20:22:00,19.5,13.2,30.46,East,89,5.0,9.0,76,0.00,,,0.00,Wunderground v.1.15,2013-01-22 02:22:00,
2013-01-21 20:27:00,19.3,13.0,30.47,ENE,73,7.0,10.0,76,0.00,,,0.00,Wunderground v.1.15,2013-01-22 02:27:00,
2013-01-21 20:33:00,19.0,12.4,30.47,ENE,67,9.0,9.0,75,0.00,,,0.00,Wunderground v.1.15,2013-01-22 02:33:00,
2013-01-21 20:39:00,18.4,11.8,30.47,ENE,64,10.0,10.0,75,0.00,,,0.00,Wunderground v.1.15,2013-01-22 02:39:00,
2013-01-21 20:44:00,18.2,11.6,30.47,ENE,63,9.0,10.0,75,0.00,,,0.00,Wunderground v.1.15,2013-01-22 02:44:00,
2013-01-21 20:50:00,18.1,11.8,30.47,ENE,65,8.0,8.0,76,0.00,,,0.00,Wunderground v.1.15,2013-01-22 02:50:00,
2013-01-21 20:55:00,18.1,11.8,30.47,ENE,66,6.0,8.0,76,0.00,,,0.00,Wunderground v.1.15,2013-01-22 02:55:00,
2013-01-21 21:01:00,18.3,12.0,30.47,ENE,73,6.0,7.0,76,0.00,,,0.00,Wunderground v.1.15,2013-01-22 03:01:00,
2013-01-21 21:07:00,18.4,12.4,30.47,East,91,6.0,9.0,77,0.00,,,0.00,Wunderground v.1.15,2013-01-22 03:07:00,
2013-01-21 21:13:00,18.7,12.7,30.47,East,95,7.0,9.0,77,0.00,,,0.00,Wunderground v.1.15,2013-01-22 03:13:00,
2013-01-21 21:18:00,18.7,12.7,30.46,East,99,9.0,11.0,77,0.00,,,0.00,Wunderground v.1.15,2013-01-22 03:18:00,
2013-01-21 21:23:00,18.8,13.1,30.45,East,92,9.0,9.0,78,0.00,,,0.00,Wunderground v.1.15,2013-01-22 03:23:00,
2013-01-21 21:29:00,18.8,12.8,30.46,East,92,8.0,9.0,77,0.00,,,0.00,Wunderground v.1.15,2013-01-22 03:29:00,
2013-01-21 21:35:00,18.8,13.1,30.45,East,101,8.0,9.0,78,0.00,,,0.00,Wunderground v.1.15,2013-01-22 03:35:00,
2013-01-21 21:40:00,18.8,13.1,30.45,ESE,105,7.0,7.0,78,0.00,,,0.00,Wunderground v.1.15,2013-01-22 03:40:00,
2013-01-21 21:45:00,18.9,13.2,30.44,ESE,107,8.0,12.0,78,0.00,,,0.00,Wunderground v.1.15,2013-01-22 03:45:00,
2013-01-21 21:51:00,18.9,13.5,30.45,ESE,112,9.0,10.0,79,0.00,,,0.00,Wunderground v.1.15,2013-01-22 03:51:00,
2013-01-21 21:56:00,18.9,13.5,30.45,East,101,9.0,11.0,79,0.00,,,0.00,Wunderground v.1.15,2013-01-22 03:56:00,
2013-01-21 22:01:00,18.9,13.5,30.45,ESE,103,9.0,9.0,79,0.00,,,0.00,Wunderground v.1.15,2013-01-22 04:01:00,
2013-01-21 22:07:00,18.9,13.7,30.47,ESE,118,9.0,10.0,80,0.00,,,0.00,Wunderground v.1.15,2013-01-22 04:07:00,
2013-01-21 22:12:00,18.8,13.7,30.47,SE,132,9.0,9.0,80,0.00,,,0.00,Wunderground v.1.15,2013-01-22 04:12:00,
2013-01-21 22:18:00,18.8,13.9,30.46,SE,130,8.0,9.0,81,0.00,,,0.00,Wunderground v.1.15,2013-01-22 04:18:00,
2013-01-21 22:23:00,18.8,13.9,30.47,SE,130,6.0,7.0,81,0.00,,,0.00,Wunderground v.1.15,2013-01-22 04:23:00,
2013-01-21 22:29:00,18.9,14.0,30.47,SE,130,5.0,7.0,81,0.00,,,0.00,Wunderground v.1.15,2013-01-22 04:29:00,
2013-01-21 22:34:00,18.8,13.9,30.46,SE,126,6.0,9.0,81,0.00,,,0.00,Wunderground v.1.15,2013-01-22 04:34:00,
2013-01-21 22:39:00,18.8,14.2,30.46,SE,126,6.0,9.0,82,0.00,,,0.00,Wunderground v.1.15,2013-01-22 04:39:00,
2013-01-21 22:45:00,18.6,14.0,30.46,SE,126,7.0,9.0,82,0.00,,,0.00,Wunderground v.1.15,2013-01-22 04:45:00,
2013-01-21 22:50:00,18.5,13.9,30.46,SE,126,8.0,8.0,82,0.00,,,0.00,Wunderground v.1.15,2013-01-22 04:50:00,
2013-01-21 22:56:00,18.5,13.9,30.47,ESE,121,7.0,8.0,82,0.00,,,0.00,Wunderground v.1.15,2013-01-22 04:56:00,
2013-01-21 23:00:00,18.5,13.9,30.47,ESE,108,5.0,5.0,82,0.00,,,0.00,Wunderground v.1.15,2013-01-22 05:00:00,
2013-01-21 23:01:00,18.4,13.8,30.47,ESE,108,6.0,6.0,82,0.00,,,0.00,Wunderground v.1.15,2013-01-22 05:01:00,
2013-01-21 23:04:00,18.4,13.8,30.47,ESE,107,6.0,7.0,82,0.00,,,0.00,Wunderground v.1.15,2013-01-22 05:04:00,
2013-01-21 23:09:00,18.4,14.1,30.48,ESE,105,6.0,8.0,83,0.00,,,0.00,Wunderground v.1.15,2013-01-22 05:09:00,
2013-01-21 23:10:00,18.4,14.1,30.48,ESE,105,6.0,6.0,83,0.00,,,0.00,Wunderground v.1.15,2013-01-22 05:10:00,
2013-01-21 23:15:00,18.3,14.0,30.48,ESE,105,7.0,8.0,83,0.00,,,0.00,Wunderground v.1.15,2013-01-22 05:15:00,
2013-01-21 23:21:00,18.2,13.9,30.47,ESE,106,7.0,8.0,83,0.00,,,0.00,Wunderground v.1.15,2013-01-22 05:21:00,
2013-01-21 23:26:00,18.2,13.9,30.47,ESE,106,7.0,9.0,83,0.00,,,0.00,Wunderground v.1.15,2013-01-22 05:26:00,
2013-01-21 23:32:00,18.1,13.8,30.47,ESE,106,7.0,7.0,83,0.00,,,0.00,Wunderground v.1.15,2013-01-22 05:32:00,
2013-01-21 23:37:00,18.1,13.8,30.47,ESE,107,7.0,9.0,83,0.00,,,0.00,Wunderground v.1.15,2013-01-22 05:37:00,
2013-01-21 23:42:00,18.0,13.7,30.46,ESE,111,9.0,11.0,83,0.00,,,0.00,Wunderground v.1.15,2013-01-22 05:42:00,
2013-01-21 23:48:00,18.0,13.7,30.47,ESE,103,8.0,11.0,83,0.00,,,0.00,Wunderground v.1.15,2013-01-22 05:48:00,
2013-01-21 23:54:00,18.0,13.7,30.46,ESE,106,8.0,10.0,83,0.00,,,0.00,Wunderground v.1.15,2013-01-22 05:54:00,
2013-01-21 23:59:00,18.0,13.7,30.47,ESE,106,8.0,10.0,83,0.00,,,0.00,Wunderground v.1.15,2013-01-22 05:59:00,